createdAt,value
2018-12-16T00:02:15.378Z,6.22
2018-12-16T00:04:49.902Z,6.23
2018-12-16T00:07:14.645Z,6.29
2018-12-16T00:09:43.177Z,6.46
2018-12-16T00:12:11.763Z,6.45
2018-12-16T00:14:40.283Z,6.42
2018-12-16T00:17:08.842Z,6.37
2018-12-16T00:19:37.346Z,6.30
2018-12-16T00:22:05.935Z,6.34
2018-12-16T00:24:34.507Z,6.38
2018-12-16T00:27:11.053Z,6.41
2018-12-16T00:29:39.778Z,6.31
2018-12-16T00:32:08.347Z,6.34
2018-12-16T00:34:36.862Z,6.40
2018-12-16T00:37:05.788Z,6.47
2018-12-16T00:39:34.368Z,6.46
2018-12-16T00:42:02.974Z,6.46
2018-12-16T00:44:31.584Z,6.45
2018-12-16T00:47:00.154Z,6.49
2018-12-16T00:49:28.734Z,6.50
2018-12-16T00:51:57.325Z,6.44
2018-12-16T00:54:25.900Z,6.40
2018-12-16T00:56:54.473Z,6.40
2018-12-16T00:59:23.092Z,6.43
2018-12-16T01:01:51.651Z,6.38
2018-12-16T01:04:20.218Z,6.40
2018-12-16T01:06:48.833Z,6.47
2018-12-16T01:09:17.470Z,6.44
2018-12-16T01:11:46.088Z,6.46
2018-12-16T01:14:14.684Z,5.84
2018-12-16T01:16:43.277Z,6.46
2018-12-16T01:19:11.880Z,6.49
2018-12-16T01:21:40.525Z,6.62
2018-12-16T01:24:09.084Z,6.67
2018-12-16T01:26:37.730Z,6.70
2018-12-16T01:29:06.294Z,6.73
2018-12-16T01:31:34.843Z,6.73
2018-12-16T01:34:03.552Z,6.94
2018-12-16T01:36:32.149Z,7.02
2018-12-16T01:39:00.788Z,6.94
2018-12-16T01:41:29.863Z,6.87
2018-12-16T01:43:58.984Z,6.76
2018-12-16T01:46:29.769Z,6.71
2018-12-16T01:48:58.321Z,6.70
2018-12-16T01:51:26.969Z,6.69
2018-12-16T01:53:55.529Z,6.69
2018-12-16T01:56:24.080Z,6.66
2018-12-16T01:58:52.656Z,6.64
2018-12-16T02:01:21.208Z,6.64
2018-12-16T02:03:49.771Z,6.64
2018-12-16T02:06:18.463Z,6.62
2018-12-16T02:08:47.028Z,6.70
2018-12-16T02:11:15.528Z,6.65
2018-12-16T02:13:44.109Z,6.62
2018-12-16T02:16:12.652Z,6.63
2018-12-16T02:18:41.234Z,6.60
2018-12-16T02:21:09.794Z,6.56
2018-12-16T02:23:38.355Z,6.54
2018-12-16T02:26:07.041Z,6.50
2018-12-16T02:28:35.597Z,6.55
2018-12-16T02:31:04.223Z,6.57
2018-12-16T02:33:32.789Z,6.57
2018-12-16T02:36:01.311Z,6.57
2018-12-16T02:38:29.905Z,6.56
2018-12-16T02:40:58.454Z,6.52
2018-12-16T02:43:27.074Z,6.54
2018-12-16T02:45:55.773Z,6.51
2018-12-16T02:48:24.346Z,6.55
2018-12-16T02:50:52.939Z,6.58
2018-12-16T02:53:21.508Z,6.54
2018-12-16T02:55:50.074Z,6.56
2018-12-16T02:58:18.734Z,6.60
2018-12-16T03:00:47.327Z,6.67
2018-12-16T03:03:22.324Z,6.67
2018-12-16T03:05:50.918Z,6.74
2018-12-16T03:08:19.482Z,6.79
2018-12-16T03:10:48.118Z,6.84
2018-12-16T03:13:16.654Z,6.81
2018-12-16T03:15:45.334Z,6.76
2018-12-16T03:18:13.905Z,6.75
2018-12-16T03:20:43.055Z,6.66
2018-12-16T03:23:12.534Z,6.62
2018-12-16T03:25:41.395Z,6.64
2018-12-16T03:28:10.000Z,6.73
2018-12-16T03:30:38.563Z,6.77
2018-12-16T03:33:07.185Z,6.83
2018-12-16T03:35:35.778Z,6.77
2018-12-16T03:38:04.470Z,6.78
2018-12-16T03:40:32.995Z,6.80
2018-12-16T03:43:01.977Z,6.82
2018-12-16T03:45:30.588Z,6.85
2018-12-16T03:47:59.253Z,6.89
2018-12-16T03:50:27.803Z,6.82
2018-12-16T03:52:56.367Z,6.93
2018-12-16T03:55:24.941Z,6.91
2018-12-16T03:57:53.516Z,6.89
2018-12-16T04:00:22.279Z,6.87
2018-12-16T04:02:50.858Z,6.86
2018-12-16T04:05:19.486Z,6.90
2018-12-16T04:07:48.146Z,6.97
2018-12-16T04:10:16.729Z,6.96
2018-12-16T04:12:45.333Z,6.96
2018-12-16T04:15:14.033Z,6.99
2018-12-16T04:17:42.603Z,6.95
2018-12-16T04:20:11.218Z,6.88
2018-12-16T04:22:39.818Z,6.85
2018-12-16T04:25:08.342Z,6.96
2018-12-16T04:27:36.895Z,6.97
2018-12-16T04:30:13.622Z,6.99
2018-12-16T04:32:42.179Z,7.03
2018-12-16T04:35:10.743Z,7.02
2018-12-16T04:37:39.391Z,6.99
2018-12-16T04:40:08.206Z,7.02
2018-12-16T04:42:36.764Z,7.06
2018-12-16T04:45:05.914Z,6.82
2018-12-16T04:47:34.465Z,7.12
2018-12-16T04:50:02.998Z,6.99
2018-12-16T04:52:31.550Z,6.95
2018-12-16T04:55:00.086Z,6.94
2018-12-16T04:57:28.663Z,6.95
2018-12-16T04:59:57.196Z,7.02
2018-12-16T05:02:25.709Z,7.05
2018-12-16T05:04:54.328Z,6.40
2018-12-16T05:07:23.231Z,5.88
2018-12-16T05:09:51.720Z,5.52
2018-12-16T05:12:20.614Z,5.31
2018-12-16T05:14:49.080Z,5.15
2018-12-16T05:17:17.633Z,5.25
2018-12-16T05:19:46.156Z,5.20
2018-12-16T05:22:14.714Z,5.21
2018-12-16T05:24:43.272Z,5.27
2018-12-16T05:27:11.837Z,5.19
2018-12-16T05:29:40.515Z,4.98
2018-12-16T05:32:09.127Z,4.70
2018-12-16T05:34:37.675Z,4.51
2018-12-16T05:37:06.226Z,4.55
2018-12-16T05:39:34.752Z,4.52
2018-12-16T05:42:03.365Z,4.33
2018-12-16T05:44:31.856Z,4.33
2018-12-16T05:47:00.377Z,4.35
2018-12-16T05:49:28.887Z,4.35
2018-12-16T05:51:57.671Z,4.45
2018-12-16T05:54:26.275Z,4.42
2018-12-16T05:56:54.879Z,4.15
2018-12-16T05:59:23.457Z,3.80
2018-12-16T06:01:52.084Z,3.60
2018-12-16T06:04:20.690Z,3.50
2018-12-16T06:06:49.245Z,3.33
2018-12-16T06:09:17.808Z,3.13
2018-12-16T06:11:46.399Z,3.06
2018-12-16T06:14:14.948Z,3.10
2018-12-16T06:16:43.421Z,3.03
2018-12-16T06:19:12.469Z,2.72
2018-12-16T06:21:41.046Z,2.69
2018-12-16T06:24:09.553Z,2.68
2018-12-16T06:26:38.116Z,2.58
2018-12-16T06:29:06.785Z,2.55
2018-12-16T06:31:35.377Z,2.48
2018-12-16T06:34:03.919Z,2.41
2018-12-16T06:36:32.522Z,2.44
2018-12-16T06:39:01.053Z,2.43
2018-12-16T06:41:30.028Z,2.22
2018-12-16T06:43:58.583Z,2.11
2018-12-16T06:46:27.107Z,1.95
2018-12-16T06:48:55.725Z,1.85
2018-12-16T06:51:24.260Z,1.84
2018-12-16T06:53:52.815Z,1.78
2018-12-16T06:56:21.593Z,1.75
2018-12-16T06:58:50.145Z,1.72
2018-12-16T07:01:18.778Z,1.67
2018-12-16T07:03:47.364Z,1.61
2018-12-16T07:06:15.939Z,1.65
2018-12-16T07:08:44.472Z,1.63
2018-12-16T07:11:13.039Z,1.65
2018-12-16T07:13:41.601Z,1.45
2018-12-16T07:16:10.293Z,1.43
2018-12-16T07:18:38.933Z,1.35
2018-12-16T07:21:07.631Z,1.36
2018-12-16T07:23:36.285Z,1.33
2018-12-16T07:26:04.826Z,1.22
2018-12-16T07:28:33.422Z,1.12
2018-12-16T07:31:01.999Z,1.05
2018-12-16T07:33:30.628Z,1.11
2018-12-16T07:35:59.189Z,1.11
2018-12-16T07:38:27.792Z,1.02
2018-12-16T07:40:56.804Z,0.90
2018-12-16T07:43:25.461Z,0.91
2018-12-16T07:45:54.953Z,0.84
2018-12-16T07:48:23.810Z,0.76
2018-12-16T07:50:52.601Z,0.74
2018-12-16T07:53:21.163Z,0.62
2018-12-16T07:55:49.718Z,0.57
2018-12-16T07:58:18.326Z,0.52
2018-12-16T08:00:47.026Z,0.44
2018-12-16T08:03:15.582Z,0.37
2018-12-16T08:05:44.222Z,0.35
2018-12-16T08:08:12.924Z,0.38
2018-12-16T08:10:41.505Z,0.28
2018-12-16T08:13:10.117Z,0.15
2018-12-16T08:15:38.656Z,0.09
2018-12-16T08:18:07.263Z,0.08
2018-12-16T08:20:35.940Z,0.02
2018-12-16T08:23:04.507Z,-0.05
2018-12-16T08:25:33.181Z,-0.15
2018-12-16T08:28:01.740Z,-0.18
2018-12-16T08:30:30.367Z,-0.22
2018-12-16T08:32:59.031Z,-0.17
2018-12-16T08:35:27.652Z,-0.44
2018-12-16T08:37:56.190Z,-0.27
2018-12-16T08:40:24.864Z,-0.31
2018-12-16T08:42:53.386Z,-0.36
2018-12-16T08:45:21.925Z,-0.37
2018-12-16T08:47:50.482Z,-0.40
2018-12-16T08:50:19.033Z,-0.42
2018-12-16T08:52:47.601Z,-0.50
2018-12-16T08:55:16.197Z,-0.57
2018-12-16T08:57:44.776Z,-0.63
2018-12-16T09:00:13.620Z,-0.70
2018-12-16T09:02:42.229Z,-0.71
2018-12-16T09:05:10.811Z,-0.78
2018-12-16T09:07:39.361Z,-0.85
2018-12-16T09:10:09.205Z,-0.96
2018-12-16T09:12:37.825Z,-1.04
2018-12-16T09:15:07.294Z,-1.09
2018-12-16T09:17:35.805Z,-1.17
2018-12-16T09:20:04.872Z,-1.26
2018-12-16T09:22:33.484Z,-1.29
2018-12-16T09:25:02.143Z,-1.30
2018-12-16T09:27:30.883Z,-1.32
2018-12-16T09:29:59.463Z,-1.39
2018-12-16T09:32:28.075Z,-1.45
2018-12-16T09:34:56.664Z,-1.47
2018-12-16T09:37:25.197Z,-1.47
2018-12-16T09:39:53.737Z,-1.50
2018-12-16T09:42:22.389Z,-1.58
2018-12-16T09:44:51.085Z,-1.61
2018-12-16T09:47:20.087Z,-1.67
2018-12-16T09:49:49.507Z,-1.70
2018-12-16T09:52:18.197Z,-1.72
2018-12-16T09:54:46.825Z,-1.66
2018-12-16T09:57:15.395Z,-1.69
2018-12-16T09:59:43.998Z,-1.72
2018-12-16T10:02:12.552Z,-1.73
2018-12-16T10:04:41.157Z,-1.73
2018-12-16T10:07:09.766Z,-1.80
2018-12-16T10:09:38.409Z,-1.78
2018-12-16T10:12:07.033Z,-1.78
2018-12-16T10:14:35.541Z,-1.77
2018-12-16T10:17:04.257Z,-1.79
2018-12-16T10:19:32.900Z,-1.73
2018-12-16T10:22:01.470Z,-1.72
2018-12-16T10:24:30.156Z,-1.71
2018-12-16T10:26:58.767Z,-1.68
2018-12-16T10:29:27.475Z,-1.72
2018-12-16T10:31:56.042Z,-1.71
2018-12-16T10:34:24.635Z,-1.69
2018-12-16T10:36:53.191Z,-1.59
2018-12-16T10:39:21.699Z,-1.66
2018-12-16T10:41:50.255Z,-1.63
2018-12-16T10:44:19.711Z,-1.64
2018-12-16T10:46:48.664Z,-1.61
2018-12-16T10:49:17.201Z,-1.58
2018-12-16T10:51:45.768Z,-1.63
2018-12-16T10:54:14.416Z,-1.62
2018-12-16T10:56:42.939Z,-1.62
2018-12-16T10:59:11.538Z,-1.65
2018-12-16T11:01:40.095Z,-1.63
2018-12-16T11:04:09.142Z,-1.60
2018-12-16T11:06:37.822Z,-1.62
2018-12-16T11:09:06.542Z,-1.69
2018-12-16T11:11:35.120Z,-1.59
2018-12-16T11:14:03.694Z,-1.62
2018-12-16T11:16:32.289Z,-1.60
2018-12-16T11:19:01.665Z,-1.57
2018-12-16T11:21:30.205Z,-1.55
2018-12-16T11:23:58.802Z,-1.56
2018-12-16T11:26:27.354Z,-1.57
2018-12-16T11:28:55.950Z,-1.64
2018-12-16T11:31:24.525Z,-1.59
2018-12-16T11:33:53.197Z,-1.66
2018-12-16T11:36:21.729Z,-1.63
2018-12-16T11:38:50.311Z,-1.40
2018-12-16T11:41:18.899Z,-1.45
2018-12-16T11:43:47.448Z,-1.43
2018-12-16T11:46:16.019Z,-1.41
2018-12-16T11:48:44.620Z,-1.49
2018-12-16T11:51:13.167Z,-1.32
2018-12-16T11:53:41.735Z,-1.23
2018-12-16T11:56:10.290Z,-1.30
2018-12-16T11:58:38.894Z,-1.29
2018-12-16T12:01:07.458Z,-1.31
2018-12-16T12:03:36.029Z,-1.39
2018-12-16T12:06:04.652Z,-1.53
2018-12-16T12:08:33.185Z,-1.52
2018-12-16T12:11:01.783Z,-1.60
2018-12-16T12:13:30.328Z,-1.52
2018-12-16T12:15:58.927Z,-1.52
2018-12-16T12:18:27.533Z,-1.62
2018-12-16T12:20:56.103Z,-1.70
2018-12-16T12:23:24.629Z,-1.74
2018-12-16T12:25:53.176Z,-1.76
2018-12-16T12:28:22.017Z,-1.75
2018-12-16T12:30:50.796Z,-1.73
2018-12-16T12:33:19.528Z,-1.74
2018-12-16T12:35:48.149Z,-1.70
2018-12-16T12:38:16.701Z,-1.74
2018-12-16T12:40:45.246Z,-1.70
2018-12-16T12:43:13.798Z,-1.69
2018-12-16T12:45:42.293Z,-1.69
2018-12-16T12:48:10.867Z,-1.61
2018-12-16T12:50:39.431Z,-1.61
2018-12-16T12:53:08.011Z,-1.65
2018-12-16T12:55:36.576Z,-1.56
2018-12-16T12:58:05.320Z,-1.58
2018-12-16T13:00:33.855Z,-2.45
2018-12-16T13:03:02.521Z,-1.68
2018-12-16T13:05:36.872Z,-1.69
2018-12-16T13:08:01.665Z,-1.65
2018-12-16T13:10:30.217Z,-1.71
2018-12-16T13:12:58.792Z,-1.76
2018-12-16T13:15:27.385Z,-1.73
2018-12-16T13:17:56.115Z,-1.72
2018-12-16T13:20:24.694Z,-1.68
2018-12-16T13:22:53.336Z,-1.64
2018-12-16T13:25:35.611Z,-1.61
2018-12-16T13:28:03.750Z,-1.56
2018-12-16T13:30:32.329Z,-1.65
2018-12-16T13:33:00.858Z,-1.64
2018-12-16T13:35:29.609Z,-1.64
2018-12-16T13:37:58.228Z,-1.66
2018-12-16T13:40:26.787Z,-1.71
2018-12-16T13:42:55.405Z,-1.66
2018-12-16T13:45:24.122Z,-1.70
2018-12-16T13:47:52.890Z,-1.65
2018-12-16T13:50:21.487Z,-1.69
2018-12-16T13:52:50.260Z,-1.64
2018-12-16T13:55:18.802Z,-1.68
2018-12-16T13:57:47.806Z,-1.48
2018-12-16T14:00:16.707Z,-1.55
2018-12-16T14:02:45.302Z,-1.65
2018-12-16T14:05:14.097Z,-1.68
2018-12-16T14:07:43.827Z,-1.72
2018-12-16T14:10:12.382Z,-1.69
2018-12-16T14:12:40.965Z,-1.69
2018-12-16T14:15:09.830Z,-1.71
2018-12-16T14:17:39.334Z,-1.71
2018-12-16T14:20:09.678Z,-1.74
2018-12-16T14:22:38.343Z,-1.70
2018-12-16T14:25:07.409Z,-1.72
2018-12-16T14:27:35.956Z,-1.73
2018-12-16T14:30:13.329Z,-1.71
2018-12-16T14:32:41.932Z,-1.75
2018-12-16T14:35:11.338Z,-1.68
2018-12-16T14:37:39.880Z,-1.67
2018-12-16T14:40:10.400Z,-1.70
2018-12-16T14:42:39.109Z,-1.66
2018-12-16T14:45:09.452Z,-1.68
2018-12-16T14:47:38.302Z,-1.76
2018-12-16T14:50:09.602Z,-1.73
2018-12-16T14:52:38.247Z,-1.79
2018-12-16T14:55:08.492Z,-1.71
2018-12-16T14:57:37.120Z,-1.81
2018-12-16T15:00:14.212Z,-1.78
2018-12-16T15:02:42.814Z,-1.78
2018-12-16T15:05:11.427Z,-1.73
2018-12-16T15:07:39.988Z,-1.64
2018-12-16T15:10:10.540Z,-1.63
2018-12-16T15:12:39.199Z,-1.65
2018-12-16T15:15:08.745Z,-1.69
2018-12-16T15:17:42.676Z,-1.67
2018-12-16T15:20:09.055Z,-1.64
2018-12-16T15:22:38.701Z,-1.59
2018-12-16T15:25:07.450Z,-1.64
2018-12-16T15:27:36.001Z,-1.71
2018-12-16T15:30:13.726Z,-1.71
2018-12-16T15:32:42.324Z,-1.69
2018-12-16T15:35:11.852Z,-1.65
2018-12-16T15:37:40.456Z,-1.59
2018-12-16T15:40:09.231Z,-1.55
2018-12-16T15:42:37.754Z,-1.56
2018-12-16T15:45:08.428Z,-1.58
2018-12-16T15:47:37.080Z,-1.54
2018-12-16T15:50:06.610Z,-1.52
2018-12-16T15:52:35.341Z,-1.59
2018-12-16T15:55:04.284Z,-1.53
2018-12-16T15:57:32.857Z,-1.44
2018-12-16T16:00:01.398Z,-1.38
2018-12-16T16:02:29.938Z,-1.32
2018-12-16T16:04:58.454Z,-1.35
2018-12-16T16:07:27.015Z,-1.34
2018-12-16T16:09:55.573Z,-1.50
2018-12-16T16:12:24.141Z,-1.50
2018-12-16T16:14:52.728Z,-1.49
2018-12-16T16:17:21.297Z,-1.50
2018-12-16T16:19:49.915Z,-1.45
2018-12-16T16:22:18.467Z,-1.50
2018-12-16T16:24:47.017Z,-1.51
2018-12-16T16:27:15.585Z,-1.50
2018-12-16T16:29:44.188Z,-1.55
2018-12-16T16:32:12.738Z,-1.58
2018-12-16T16:34:41.284Z,-1.61
2018-12-16T16:37:09.854Z,-1.62
2018-12-16T16:39:38.443Z,-1.68
2018-12-16T16:42:08.592Z,-1.69
2018-12-16T16:44:37.144Z,-1.72
2018-12-16T16:47:05.730Z,-1.73
2018-12-16T16:49:34.284Z,-1.72
2018-12-16T16:52:02.887Z,-1.71
2018-12-16T16:54:31.488Z,-1.73
2018-12-16T16:57:00.025Z,-1.78
2018-12-16T16:59:28.603Z,-1.73
2018-12-16T17:01:57.196Z,-1.70
2018-12-16T17:04:26.384Z,-1.75
2018-12-16T17:06:54.967Z,-1.81
2018-12-16T17:09:23.501Z,-1.85
2018-12-16T17:11:52.090Z,-1.82
2018-12-16T17:14:20.699Z,-1.80
2018-12-16T17:16:49.288Z,-1.82
2018-12-16T17:19:18.136Z,-1.80
2018-12-16T17:21:47.139Z,-1.80
2018-12-16T17:24:15.703Z,-1.83
2018-12-16T17:26:44.265Z,-1.86
2018-12-16T17:29:12.841Z,-1.86
2018-12-16T17:31:41.393Z,-1.84
2018-12-16T17:34:09.956Z,-1.84
2018-12-16T17:36:38.492Z,-1.84
2018-12-16T17:39:09.001Z,-1.83
2018-12-16T17:41:37.678Z,-1.84
2018-12-16T17:44:06.283Z,-1.82
2018-12-16T17:46:34.860Z,-2.48
2018-12-16T17:49:03.438Z,-1.84
2018-12-16T17:51:32.020Z,-1.82
2018-12-16T17:54:00.595Z,-1.81
2018-12-16T17:56:29.216Z,-1.81
2018-12-16T17:58:57.814Z,-1.80
2018-12-16T18:01:26.449Z,-1.85
2018-12-16T18:03:55.013Z,-1.82
2018-12-16T18:06:24.309Z,-1.87
2018-12-16T18:08:53.214Z,-1.82
2018-12-16T18:11:22.494Z,-1.79
2018-12-16T18:13:51.019Z,-1.80
2018-12-16T18:16:19.586Z,-1.77
2018-12-16T18:18:48.140Z,-1.76
2018-12-16T18:21:16.675Z,-1.80
2018-12-16T18:23:45.244Z,-1.81
2018-12-16T18:26:13.751Z,-1.82
2018-12-16T18:28:42.670Z,-1.79
2018-12-16T18:31:11.225Z,-1.82
2018-12-16T18:33:39.771Z,-1.79
2018-12-16T18:36:08.364Z,-1.76
2018-12-16T18:38:36.941Z,-1.71
2018-12-16T18:41:05.533Z,-1.78
2018-12-16T18:43:34.094Z,-1.78
2018-12-16T18:46:02.691Z,-1.77
2018-12-16T18:48:31.241Z,-1.75
2018-12-16T18:50:59.761Z,-1.80
2018-12-16T18:53:28.711Z,-1.78
2018-12-16T18:55:57.320Z,-1.86
2018-12-16T18:58:25.864Z,-1.83
2018-12-16T19:00:54.396Z,-1.78
2018-12-16T19:03:22.980Z,-1.74
2018-12-16T19:05:51.522Z,-1.77
2018-12-16T19:08:20.111Z,-1.78
2018-12-16T19:10:48.702Z,-1.82
2018-12-16T19:13:17.247Z,-1.81
2018-12-16T19:15:45.786Z,-1.79
2018-12-16T19:18:14.362Z,-1.78
2018-12-16T19:20:44.190Z,-1.80
2018-12-16T19:23:12.747Z,-1.85
2018-12-16T19:25:42.312Z,-1.85
2018-12-16T19:28:11.062Z,-1.80
2018-12-16T19:30:39.592Z,-1.82
2018-12-16T19:33:08.166Z,-1.80
2018-12-16T19:35:36.702Z,-1.77
2018-12-16T19:38:05.238Z,-1.79
2018-12-16T19:40:33.798Z,-1.75
2018-12-16T19:43:02.376Z,-1.74
2018-12-16T19:45:30.926Z,-1.73
2018-12-16T19:47:59.487Z,-1.73
2018-12-16T19:50:28.024Z,-1.79
2018-12-16T19:52:56.550Z,-1.79
2018-12-16T19:55:25.595Z,-1.83
2018-12-16T19:57:54.122Z,-1.80
2018-12-16T20:00:22.679Z,-1.80
2018-12-16T20:02:51.206Z,-1.80
2018-12-16T20:05:20.818Z,-1.83
2018-12-16T20:07:50.176Z,-1.80
2018-12-16T20:10:18.742Z,-1.83
2018-12-16T20:12:47.344Z,-1.89
2018-12-16T20:15:15.871Z,-1.87
2018-12-16T20:17:44.445Z,-1.86
2018-12-16T20:20:13.117Z,-1.91
2018-12-16T20:22:41.681Z,-1.95
2018-12-16T20:25:10.254Z,-1.98
2018-12-16T20:27:38.790Z,-1.99
2018-12-16T20:30:11.221Z,-2.01
2018-12-16T20:32:39.749Z,-1.95
2018-12-16T20:35:08.366Z,-1.95
2018-12-16T20:37:37.902Z,-1.92
2018-12-16T20:40:07.809Z,-1.94
2018-12-16T20:42:36.339Z,-1.97
2018-12-16T20:45:06.101Z,-2.04
2018-12-16T20:47:34.630Z,-2.06
2018-12-16T20:50:03.313Z,-1.97
2018-12-16T20:52:31.833Z,-2.00
2018-12-16T20:55:00.386Z,-2.02
2018-12-16T20:57:28.917Z,-2.04
2018-12-16T20:59:57.508Z,-2.02
2018-12-16T21:02:26.086Z,-2.04
2018-12-16T21:04:54.648Z,-2.06
2018-12-16T21:07:23.181Z,-2.09
2018-12-16T21:09:51.729Z,-2.06
2018-12-16T21:12:25.626Z,-2.06
2018-12-16T21:14:59.398Z,-2.10
2018-12-16T21:17:33.305Z,-2.15
2018-12-16T21:20:01.872Z,-2.18
2018-12-16T21:22:30.422Z,-2.20
2018-12-16T21:24:59.016Z,-2.15
2018-12-16T21:27:27.778Z,-2.15
2018-12-16T21:29:56.305Z,-2.16
2018-12-16T21:32:24.964Z,-2.19
2018-12-16T21:34:53.617Z,-2.17
2018-12-16T21:37:22.174Z,-2.14
2018-12-16T21:39:50.875Z,-2.15
2018-12-16T21:42:19.484Z,-2.14
2018-12-16T21:44:48.065Z,-2.14
2018-12-16T21:47:16.624Z,-2.17
2018-12-16T21:49:45.235Z,-2.18
2018-12-16T21:52:13.784Z,-2.14
2018-12-16T21:54:42.343Z,-2.12
2018-12-16T21:57:10.894Z,-2.04
2018-12-16T21:59:39.751Z,-2.02
2018-12-16T22:02:08.265Z,-2.11
2018-12-16T22:04:36.827Z,-2.08
2018-12-16T22:07:05.366Z,-2.11
2018-12-16T22:09:33.929Z,-2.14
2018-12-16T22:12:02.464Z,-2.12
2018-12-16T22:14:31.080Z,-2.09
2018-12-16T22:16:59.661Z,-2.13
2018-12-16T22:19:28.204Z,-2.11
2018-12-16T22:21:56.691Z,-2.10
2018-12-16T22:24:25.289Z,-2.11
2018-12-16T22:26:53.833Z,-2.13
2018-12-16T22:29:22.355Z,-2.12
2018-12-16T22:31:50.944Z,-2.14
2018-12-16T22:34:20.414Z,-2.13
2018-12-16T22:36:49.047Z,-2.13
2018-12-16T22:39:17.635Z,-2.08
2018-12-16T22:41:46.174Z,-2.07
2018-12-16T22:44:14.703Z,-2.14
2018-12-16T22:46:43.775Z,-2.11
2018-12-16T22:49:12.351Z,-2.09
2018-12-16T22:51:40.896Z,-2.06
2018-12-16T22:54:09.443Z,-2.15
2018-12-16T22:56:38.028Z,-2.12
2018-12-16T22:59:06.557Z,-2.15
2018-12-16T23:01:35.131Z,-2.14
2018-12-16T23:04:03.675Z,-2.18
2018-12-16T23:06:32.221Z,-2.13
2018-12-16T23:09:00.933Z,-2.09
2018-12-16T23:11:29.647Z,-2.08
2018-12-16T23:13:58.465Z,-2.08
2018-12-16T23:16:28.001Z,-2.09
2018-12-16T23:18:56.538Z,-2.09
2018-12-16T23:21:25.139Z,-2.10
2018-12-16T23:23:53.751Z,-2.12
2018-12-16T23:26:22.315Z,-2.10
2018-12-16T23:28:51.098Z,-2.10
2018-12-16T23:31:19.665Z,-2.08
2018-12-16T23:33:48.175Z,-2.06
2018-12-16T23:36:16.888Z,-2.10
2018-12-16T23:38:45.459Z,-2.12
2018-12-16T23:41:14.048Z,-2.08
2018-12-16T23:43:42.580Z,-2.07
2018-12-16T23:46:11.094Z,-2.11
2018-12-16T23:48:39.675Z,-2.14
2018-12-16T23:51:08.358Z,-2.11
2018-12-16T23:53:36.923Z,-2.07
2018-12-16T23:56:05.443Z,-2.06
2018-12-16T23:58:34.010Z,-2.06
